createdAt,value
2019-04-06T08:06:17.214Z,60.17
2019-04-06T08:08:39.938Z,63.00
2019-04-06T08:11:09.205Z,59.97
2019-04-06T08:13:31.778Z,62.50
2019-04-06T08:15:54.447Z,60.70
2019-04-06T08:18:19.088Z,61.17
2019-04-06T08:26:16.314Z,60.37
2019-04-06T08:28:39.043Z,63.83
2019-04-06T08:45:46.056Z,56.53
2019-04-06T11:21:10.528Z,18.00
2019-04-06T11:24:26.355Z,16.00
2019-04-06T11:27:11.754Z,18.23
2019-04-06T18:37:36.896Z,47.83
2019-04-06T18:40:01.875Z,47.97
2019-04-06T18:42:24.600Z,44.47
2019-04-06T18:44:47.337Z,76.57
2019-04-06T18:47:09.894Z,124.03
2019-04-06T18:49:32.451Z,71.43
2019-04-06T18:51:54.920Z,66.60
2019-04-06T18:54:17.496Z,31.70
2019-04-06T18:56:40.101Z,29.70
2019-04-06T18:59:02.924Z,24.97
2019-04-06T19:01:25.819Z,26.60
2019-04-06T19:03:48.523Z,26.03
2019-04-06T19:06:11.307Z,25.37
2019-04-06T19:08:34.290Z,24.37
2019-04-06T19:10:58.046Z,26.30
2019-04-06T19:13:20.657Z,26.53
2019-04-06T19:15:43.155Z,26.50
2019-04-06T19:18:05.660Z,25.30
2019-04-06T19:20:28.212Z,43.63
2019-04-06T19:22:50.848Z,43.73
2019-04-06T19:25:14.345Z,31.73
2019-04-06T19:27:37.340Z,26.10
2019-04-06T19:30:00.366Z,25.30
2019-04-06T19:32:24.126Z,29.00
2019-04-06T19:34:46.995Z,21.67
2019-04-06T19:37:10.384Z,21.87
2019-04-06T19:39:33.042Z,19.53
2019-04-06T19:41:55.579Z,21.90
2019-04-06T19:44:18.134Z,24.73
2019-04-06T19:46:40.603Z,26.07
2019-04-06T19:49:03.095Z,24.63
2019-04-06T19:51:26.450Z,23.33
2019-04-06T19:53:48.992Z,21.33
2019-04-06T19:56:12.035Z,19.50
2019-04-06T19:58:34.582Z,22.40
2019-04-06T20:00:57.418Z,20.27
